Time;durP1;ratioP1;P1;durP2;ratioP2;P2;SDS_P1;SDS_P2;PMS_P1;PMS_P2;Temp;Humidity;BMP_temperature;BMP_pressure;BME280_temperature;BME280_humidity;BME280_pressure;Samples;Min_cycle;Max_cycle;Signal;HPM_P1;HPM_P2
2022/12/08 00:01:26;;;;;;;0.40;0.40;;;14.10;83.10;;;;;;5095470;28;20228;-65
2022/12/08 00:04:15;;;;;;;0.40;0.40;;;14.10;83.40;;;;;;5096462;28;20195;-64
2022/12/08 00:10:20;;;;;;;0.40;0.40;;;14.20;84.20;;;;;;5012754;28;20646;-64
2022/12/08 00:13:29;;;;;;;0.40;0.40;;;14.40;84.00;;;;;;5095964;28;20200;-64
2022/12/08 00:16:17;;;;;;;0.40;0.40;;;14.60;83.70;;;;;;5096139;28;20296;-64
2022/12/08 00:19:05;;;;;;;0.40;0.40;;;14.70;83.40;;;;;;5096263;28;20196;-64
2022/12/08 00:21:54;;;;;;;0.40;0.40;;;14.30;82.70;;;;;;5095730;28;20295;-65
2022/12/08 00:24:45;;;;;;;0.40;0.40;;;14.90;82.90;;;;;;5095465;28;20196;-63
2022/12/08 00:27:33;;;;;;;0.40;0.40;;;15.00;82.80;;;;;;5095714;28;20207;-64
2022/12/08 00:30:22;;;;;;;0.40;0.40;;;15.10;82.60;;;;;;5095177;28;20222;-65
2022/12/08 00:33:11;;;;;;;0.40;0.40;;;15.10;82.40;;;;;;5096295;28;20208;-63
2022/12/08 00:36:04;;;;;;;0.40;0.40;;;15.10;81.70;;;;;;5095679;28;20200;-64
2022/12/08 00:38:52;;;;;;;0.40;0.40;;;15.10;82.20;;;;;;5096110;28;20609;-65
2022/12/08 00:44:47;;;;;;;0.40;0.40;;;15.10;82.60;;;;;;5095656;28;20196;-65
2022/12/08 00:47:36;;;;;;;0.40;0.40;;;15.00;82.00;;;;;;5095017;28;20321;-65
2022/12/08 00:50:24;;;;;;;0.73;0.73;;;15.00;81.50;;;;;;5095216;28;20242;-64
2022/12/08 00:53:13;;;;;;;0.50;0.50;;;15.00;81.90;;;;;;5095330;28;20200;-64
2022/12/08 00:56:01;;;;;;;0.40;0.40;;;15.00;81.80;;;;;;5095316;28;20241;-64
2022/12/08 00:58:49;;;;;;;1.27;1.25;;;15.00;81.50;;;;;;5095442;28;20279;-64
2022/12/08 01:01:37;;;;;;;0.40;0.40;;;14.90;81.70;;;;;;5094642;28;20226;-64
2022/12/08 01:04:26;;;;;;;0.40;0.40;;;14.90;81.60;;;;;;5095518;28;20302;-65
2022/12/08 01:07:15;;;;;;;0.40;0.40;;;14.80;81.70;;;;;;5094493;28;20202;-65
2022/12/08 01:10:03;;;;;;;0.40;0.40;;;14.70;81.80;;;;;;5094396;28;20222;-64
2022/12/08 01:12:52;;;;;;;0.40;0.40;;;14.60;81.60;;;;;;5094260;28;20197;-63
2022/12/08 01:15:40;;;;;;;0.40;0.40;;;14.60;81.60;;;;;;5095501;28;20200;-62
2022/12/08 01:18:28;;;;;;;0.40;0.40;;;14.60;82.20;;;;;;5095126;28;20554;-64
2022/12/08 01:21:18;;;;;;;0.40;0.40;;;14.50;82.10;;;;;;5095450;28;20306;-64
2022/12/08 01:24:10;;;;;;;1.90;1.33;;;14.50;82.20;;;;;;5094784;28;20279;-65
2022/12/08 01:26:58;;;;;;;0.40;0.40;;;14.50;82.20;;;;;;5094436;28;20228;-63
2022/12/08 01:29:46;;;;;;;0.40;0.40;;;14.40;82.30;;;;;;5094100;28;20695;-63
2022/12/08 01:32:34;;;;;;;0.40;0.40;;;14.40;82.30;;;;;;5094382;28;20347;-63
2022/12/08 01:35:22;;;;;;;0.40;0.40;;;14.40;82.10;;;;;;5094299;28;20253;-63
2022/12/08 01:38:12;;;;;;;0.50;0.50;;;14.30;82.20;;;;;;5093648;28;20338;-64
2022/12/08 01:41:00;;;;;;;0.40;0.40;;;14.30;82.20;;;;;;5094098;28;20223;-64
2022/12/08 01:43:58;;;;;;;0.40;0.40;;;14.30;82.40;;;;;;5094713;28;20196;-65
2022/12/08 01:46:47;;;;;;;0.40;0.40;;;14.30;82.60;;;;;;5094250;28;20259;-65
2022/12/08 01:49:36;;;;;;;0.40;0.40;;;14.30;82.70;;;;;;5093537;28;20241;-65
2022/12/08 01:52:29;;;;;;;0.40;0.40;;;14.30;82.70;;;;;;5092427;28;20308;-64
2022/12/08 01:55:22;;;;;;;0.40;0.40;;;14.30;82.50;;;;;;5094145;28;20199;-63
2022/12/08 01:58:15;;;;;;;0.40;0.40;;;14.20;82.60;;;;;;5094544;28;20196;-64
2022/12/08 02:01:03;;;;;;;0.40;0.40;;;14.20;83.00;;;;;;5094067;28;20306;-65
2022/12/08 02:03:58;;;;;;;0.40;0.40;;;14.20;83.00;;;;;;5093941;28;20273;-64
2022/12/08 02:06:48;;;;;;;0.40;0.40;;;14.20;82.60;;;;;;5094647;28;20203;-65
2022/12/08 02:09:39;;;;;;;0.40;0.40;;;14.20;82.90;;;;;;5093313;28;21005;-64
2022/12/08 02:12:29;;;;;;;0.40;0.40;;;14.20;82.70;;;;;;5093841;28;20207;-64
2022/12/08 02:15:17;;;;;;;0.40;0.40;;;14.20;82.70;;;;;;5094166;28;20282;-66
2022/12/08 02:18:19;;;;;;;0.47;0.47;;;14.10;82.70;;;;;;5091161;28;20283;-64
2022/12/08 02:21:12;;;;;;;0.40;0.40;;;14.10;82.90;;;;;;5071102;28;20224;-64
2022/12/08 02:24:10;;;;;;;0.40;0.40;;;14.10;82.80;;;;;;5078300;28;20246;-64
2022/12/08 02:27:18;;;;;;;0.40;0.40;;;14.10;82.70;;;;;;5079980;28;20653;-64
2022/12/08 02:30:25;;;;;;;0.40;0.40;;;14.10;83.10;;;;;;5079181;28;20750;-64
2022/12/08 02:33:44;;;;;;;0.40;0.40;;;14.10;83.20;;;;;;5080247;28;20282;-65
2022/12/08 02:36:41;;;;;;;0.40;0.40;;;14.00;83.10;;;;;;5079626;28;20477;-64
2022/12/08 02:39:36;;;;;;;0.40;0.40;;;14.00;83.40;;;;;;5079507;28;20703;-64
2022/12/08 02:42:30;;;;;;;0.40;0.40;;;14.00;83.30;;;;;;5079468;28;20728;-65
2022/12/08 02:45:24;;;;;;;0.40;0.40;;;14.00;83.30;;;;;;5079035;28;20420;-63
2022/12/08 02:48:12;;;;;;;0.40;0.40;;;14.00;83.10;;;;;;5079653;28;20329;-64
2022/12/08 02:51:01;;;;;;;0.40;0.40;;;14.00;83.20;;;;;;5078759;28;20220;-64
2022/12/08 02:53:50;;;;;;;0.40;0.40;;;14.00;83.60;;;;;;5079356;28;20691;-65
2022/12/08 02:56:52;;;;;;;0.40;0.40;;;14.00;83.40;;;;;;5080932;28;20279;-66
2022/12/08 02:59:56;;;;;;;0.40;0.40;;;14.00;82.70;;;;;;5079440;28;20275;-62
2022/12/08 03:02:56;;;;;;;0.40;0.40;;;14.00;83.20;;;;;;5079415;28;20533;-64
2022/12/08 03:05:57;;;;;;;0.40;0.40;;;14.00;83.50;;;;;;5079655;28;20490;-66
2022/12/08 03:08:54;;;;;;;0.40;0.40;;;14.00;83.10;;;;;;5080447;28;20196;-65
2022/12/08 03:11:48;;;;;;;0.40;0.40;;;14.10;83.40;;;;;;5080201;28;20299;-65
2022/12/08 03:14:38;;;;;;;0.40;0.40;;;14.10;83.10;;;;;;5079592;28;20197;-64
2022/12/08 03:17:29;;;;;;;0.40;0.40;;;14.10;83.10;;;;;;5079446;28;20197;-65
2022/12/08 03:20:21;;;;;;;0.40;0.40;;;14.10;83.20;;;;;;5079141;28;20227;-62
2022/12/08 03:23:13;;;;;;;0.40;0.40;;;14.10;83.10;;;;;;5079542;28;20227;-66
2022/12/08 03:26:07;;;;;;;0.40;0.40;;;14.10;83.10;;;;;;5080301;28;20588;-64
2022/12/08 03:28:56;;;;;;;0.40;0.40;;;14.20;83.00;;;;;;5080125;28;20275;-64
2022/12/08 03:31:50;;;;;;;0.40;0.40;;;14.10;83.00;;;;;;5080465;28;20304;-64
2022/12/08 03:34:41;;;;;;;0.40;0.40;;;14.10;82.90;;;;;;5076638;28;20200;-65
2022/12/08 03:37:30;;;;;;;0.40;0.40;;;14.10;83.30;;;;;;5075795;28;20201;-64
2022/12/08 03:40:20;;;;;;;0.40;0.40;;;14.10;83.20;;;;;;5076214;28;20217;-64
2022/12/08 03:43:09;;;;;;;0.40;0.40;;;14.10;83.30;;;;;;5075331;28;20295;-64
2022/12/08 03:45:57;;;;;;;0.40;0.40;;;14.10;83.30;;;;;;5076514;28;20207;-65
2022/12/08 03:48:46;;;;;;;0.40;0.40;;;14.10;83.20;;;;;;5075678;28;20673;-65
2022/12/08 03:51:34;;;;;;;0.40;0.40;;;14.10;83.30;;;;;;5075779;28;20267;-65
2022/12/08 03:54:22;;;;;;;0.40;0.40;;;14.00;83.30;;;;;;5075816;28;20223;-64
2022/12/08 03:57:10;;;;;;;0.40;0.40;;;14.00;83.50;;;;;;5076205;28;20325;-64
2022/12/08 04:00:00;;;;;;;0.40;0.40;;;14.10;94.00;;;;;;5075622;28;20200;-63
2022/12/08 04:02:48;;;;;;;0.50;0.50;;;14.10;84.10;;;;;;5076981;28;20482;-65
2022/12/08 04:05:36;;;;;;;0.40;0.40;;;14.20;83.90;;;;;;5075649;28;20255;-66
2022/12/08 04:08:24;;;;;;;0.40;0.40;;;14.30;83.70;;;;;;5075766;28;20588;-71
2022/12/08 04:11:12;;;;;;;0.40;0.40;;;14.40;83.60;;;;;;5075775;28;20227;-65
2022/12/08 04:14:00;;;;;;;0.40;0.40;;;14.50;83.50;;;;;;5074984;28;20799;-65
2022/12/08 04:16:50;;;;;;;0.40;0.40;;;14.60;83.40;;;;;;5076007;28;20279;-66
2022/12/08 04:19:39;;;;;;;0.40;0.40;;;14.60;83.10;;;;;;5075658;28;20232;-64
2022/12/08 04:22:27;;;;;;;0.40;0.40;;;14.70;82.90;;;;;;5074806;28;20263;-65
2022/12/08 04:25:16;;;;;;;0.40;0.40;;;14.70;82.70;;;;;;5075537;28;20673;-65
2022/12/08 04:28:04;;;;;;;0.50;0.50;;;14.80;82.70;;;;;;5075741;28;20269;-63
2022/12/08 04:30:52;;;;;;;0.40;0.40;;;14.80;82.70;;;;;;5074738;28;20221;-65
2022/12/08 04:33:41;;;;;;;0.40;0.40;;;14.80;82.70;;;;;;5075633;28;20672;-66
2022/12/08 04:36:29;;;;;;;0.40;0.40;;;14.80;82.60;;;;;;5075105;28;20200;-64
2022/12/08 04:39:17;;;;;;;0.40;0.40;;;14.70;82.20;;;;;;5075341;28;20201;-62
2022/12/08 04:42:05;;;;;;;0.40;0.40;;;14.80;82.40;;;;;;5075695;28;20197;-64
2022/12/08 04:44:53;;;;;;;0.40;0.40;;;14.80;82.20;;;;;;5075081;28;20283;-63
2022/12/08 04:47:42;;;;;;;0.40;0.40;;;14.70;82.10;;;;;;5075625;28;20279;-63
2022/12/08 04:50:31;;;;;;;0.73;0.73;;;14.70;82.20;;;;;;5075118;28;20311;-64
2022/12/08 04:53:20;;;;;;;0.40;0.40;;;14.70;82.20;;;;;;5074475;28;20252;-63
2022/12/08 04:56:11;;;;;;;0.40;0.40;;;14.60;82.10;;;;;;5074469;28;20196;-63
2022/12/08 04:58:59;;;;;;;0.40;0.40;;;14.60;82.20;;;;;;5074952;28;20204;-63
2022/12/08 05:01:47;;;;;;;0.40;0.40;;;14.60;82.40;;;;;;5074439;28;20609;-63
2022/12/08 05:04:36;;;;;;;0.40;0.40;;;14.50;82.30;;;;;;5074777;28;20225;-63
2022/12/08 05:07:25;;;;;;;0.40;0.40;;;14.50;82.40;;;;;;5074690;28;20280;-64
2022/12/08 05:10:13;;;;;;;0.40;0.40;;;14.50;82.70;;;;;;5074158;28;20280;-62
2022/12/08 05:13:01;;;;;;;0.40;0.40;;;14.40;82.50;;;;;;5074086;28;20280;-62
2022/12/08 05:15:49;;;;;;;0.50;0.50;;;14.40;82.70;;;;;;5074298;28;20687;-63
2022/12/08 05:18:39;;;;;;;0.40;0.40;;;14.40;82.80;;;;;;5073178;28;20207;-64
2022/12/08 05:21:26;;;;;;;0.40;0.40;;;14.30;82.70;;;;;;5073133;28;20224;-64
2022/12/08 05:24:16;;;;;;;0.40;0.40;;;14.30;83.00;;;;;;5074654;28;20237;-65
2022/12/08 05:27:04;;;;;;;0.40;0.40;;;14.30;82.90;;;;;;5074858;28;20557;-63
2022/12/08 05:29:52;;;;;;;0.40;0.40;;;14.20;83.00;;;;;;5073032;28;20193;-63
2022/12/08 05:32:40;;;;;;;0.50;0.50;;;14.30;83.30;;;;;;5075137;28;20193;-61
2022/12/08 05:35:28;;;;;;;0.40;0.40;;;14.30;83.40;;;;;;5074132;28;20284;-63
2022/12/08 05:38:16;;;;;;;0.40;0.40;;;14.30;83.80;;;;;;5074220;28;20691;-63
2022/12/08 05:41:06;;;;;;;0.40;0.40;;;14.40;83.60;;;;;;5073578;28;20707;-61
2022/12/08 05:43:54;;;;;;;0.40;0.40;;;14.40;83.50;;;;;;5073779;28;20258;-64
2022/12/08 05:46:42;;;;;;;0.40;0.40;;;14.50;83.40;;;;;;5073545;28;20733;-62
2022/12/08 05:49:30;;;;;;;0.40;0.40;;;14.50;83.40;;;;;;5074189;28;20200;-63
2022/12/08 05:52:18;;;;;;;0.40;0.40;;;14.60;83.30;;;;;;5072425;28;20200;-63
2022/12/08 05:55:07;;;;;;;0.40;0.40;;;14.60;83.10;;;;;;5074546;28;20280;-63
2022/12/08 05:57:56;;;;;;;0.40;0.40;;;14.60;82.90;;;;;;5073310;28;20299;-63
2022/12/08 06:00:45;;;;;;;0.40;0.40;;;14.60;82.70;;;;;;5073843;28;20235;-63
2022/12/08 06:03:34;;;;;;;0.40;0.40;;;14.60;82.80;;;;;;5074582;28;20221;-63
2022/12/08 06:06:22;;;;;;;0.40;0.40;;;14.60;82.80;;;;;;5073869;28;20207;-64
2022/12/08 06:09:11;;;;;;;0.80;0.80;;;14.60;82.80;;;;;;5072583;28;20201;-63
2022/12/08 06:11:59;;;;;;;0.40;0.40;;;14.60;82.80;;;;;;5073453;28;20221;-63
2022/12/08 06:14:48;;;;;;;0.50;0.50;;;14.60;82.60;;;;;;5073148;28;20673;-64
2022/12/08 06:17:36;;;;;;;0.40;0.40;;;14.50;82.70;;;;;;5073195;28;20204;-63
2022/12/08 06:20:24;;;;;;;0.40;0.40;;;14.50;82.80;;;;;;5072822;28;20294;-63
2022/12/08 06:23:12;;;;;;;0.40;0.40;;;14.50;82.80;;;;;;5073419;28;20201;-63
2022/12/08 06:26:01;;;;;;;0.40;0.40;;;14.50;82.80;;;;;;5073889;28;20394;-64
2022/12/08 06:28:50;;;;;;;0.40;0.40;;;14.50;82.70;;;;;;5073197;28;20681;-64
2022/12/08 06:31:40;;;;;;;0.40;0.40;;;14.40;82.80;;;;;;5072404;28;20217;-63
2022/12/08 06:34:28;;;;;;;0.40;0.40;;;14.40;82.90;;;;;;5073002;28;20246;-63
2022/12/08 06:37:16;;;;;;;0.40;0.40;;;14.40;83.00;;;;;;5073383;28;20201;-63
2022/12/08 06:40:05;;;;;;;0.40;0.40;;;14.40;83.20;;;;;;5073370;28;20530;-63
2022/12/08 06:42:53;;;;;;;0.40;0.40;;;14.30;83.00;;;;;;5072902;28;20204;-62
2022/12/08 06:45:41;;;;;;;0.40;0.40;;;14.30;83.00;;;;;;5073049;28;20205;-63
2022/12/08 06:48:31;;;;;;;0.40;0.40;;;14.30;83.10;;;;;;5073177;28;20236;-63
2022/12/08 06:51:21;;;;;;;0.40;0.40;;;14.30;83.30;;;;;;5072399;28;20676;-63
2022/12/08 06:54:09;;;;;;;0.40;0.40;;;14.30;83.30;;;;;;5073438;28;20253;-63
2022/12/08 06:56:57;;;;;;;0.40;0.40;;;14.30;83.30;;;;;;5073162;28;20197;-62
2022/12/08 06:59:45;;;;;;;0.40;0.40;;;14.20;85.40;;;;;;5072170;28;20759;-66
2022/12/08 07:02:33;;;;;;;0.40;0.40;;;14.20;83.50;;;;;;5066025;28;20291;-63
2022/12/08 07:05:23;;;;;;;0.40;0.40;;;14.20;83.50;;;;;;5071288;28;20491;-63
2022/12/08 07:08:11;;;;;;;0.40;0.40;;;14.20;83.70;;;;;;5072309;28;20201;-63
2022/12/08 07:10:59;;;;;;;0.40;0.40;;;14.20;83.70;;;;;;5074493;28;20216;-62
2022/12/08 07:13:47;;;;;;;0.40;0.40;;;14.20;84.00;;;;;;5075942;28;20437;-63
2022/12/08 07:16:36;;;;;;;0.40;0.40;;;14.30;84.00;;;;;;5075863;28;20212;-64
2022/12/08 07:19:24;;;;;;;0.40;0.40;;;14.30;83.80;;;;;;5076676;28;20389;-63
2022/12/08 07:22:13;;;;;;;0.40;0.40;;;14.30;83.80;;;;;;5055899;28;20282;-62
2022/12/08 07:25:01;;;;;;;0.40;0.40;;;14.30;83.70;;;;;;5055662;28;20223;-64
2022/12/08 07:27:50;;;;;;;0.40;0.40;;;14.40;83.70;;;;;;5056170;28;20685;-67
2022/12/08 07:30:38;;;;;;;0.40;0.40;;;14.40;83.60;;;;;;5055847;28;20217;-64
2022/12/08 07:33:27;;;;;;;0.40;0.40;;;14.40;83.60;;;;;;5056163;28;20216;-64
2022/12/08 07:36:15;;;;;;;0.40;0.40;;;14.40;83.40;;;;;;5056168;28;20252;-64
2022/12/08 07:39:05;;;;;;;0.77;0.77;;;14.40;83.30;;;;;;5055212;28;20962;-64
2022/12/08 07:41:53;;;;;;;0.40;0.40;;;14.50;83.40;;;;;;5056162;28;20335;-63
2022/12/08 07:44:41;;;;;;;0.40;0.40;;;14.40;83.00;;;;;;5055399;28;20221;-64
2022/12/08 07:47:29;;;;;;;0.40;0.40;;;14.50;83.30;;;;;;5055321;28;20254;-63
2022/12/08 07:50:17;;;;;;;0.40;0.40;;;14.50;83.20;;;;;;5055377;28;20678;-63
2022/12/08 07:53:06;;;;;;;0.40;0.40;;;14.40;83.10;;;;;;5055553;28;20284;-64
2022/12/08 07:55:55;;;;;;;0.40;0.40;;;14.40;83.00;;;;;;5055696;28;20263;-62
2022/12/08 07:58:45;;;;;;;0.50;0.50;;;14.40;83.00;;;;;;5054960;28;20196;-63
2022/12/08 08:01:34;;;;;;;0.40;0.40;;;14.50;83.20;;;;;;5055632;28;20312;-63
2022/12/08 08:04:23;;;;;;;0.40;0.40;;;14.40;83.00;;;;;;5055754;28;20228;-62
2022/12/08 08:07:11;;;;;;;0.40;0.40;;;14.50;83.30;;;;;;5055476;28;20616;-63
2022/12/08 08:09:59;;;;;;;0.40;0.40;;;14.40;92.20;;;;;;5055799;28;20681;-63
2022/12/08 08:12:48;;;;;;;0.40;0.40;;;14.40;83.20;;;;;;5055478;28;20276;-63
2022/12/08 08:15:36;;;;;;;0.40;0.40;;;14.40;83.20;;;;;;5055376;28;20644;-63
2022/12/08 08:18:24;;;;;;;0.40;0.40;;;14.40;83.20;;;;;;5054970;28;20287;-63
2022/12/08 08:21:12;;;;;;;0.40;0.40;;;14.40;83.30;;;;;;5053974;28;20217;-62
2022/12/08 08:24:22;;;;;;;0.40;0.40;;;14.40;83.40;;;;;;5054927;28;20197;-62
2022/12/08 08:27:10;;;;;;;0.40;0.40;;;14.30;83.50;;;;;;5055001;28;20232;-63
2022/12/08 08:30:00;;;;;;;0.40;0.40;;;14.30;83.40;;;;;;5055047;28;20217;-63
2022/12/08 08:32:49;;;;;;;0.40;0.40;;;14.30;83.60;;;;;;5055228;28;20242;-64
2022/12/08 08:35:38;;;;;;;0.40;0.40;;;14.30;83.60;;;;;;5054717;28;20295;-63
2022/12/08 08:38:26;;;;;;;0.40;0.40;;;14.30;83.70;;;;;;5054943;28;20339;-63
2022/12/08 08:41:14;;;;;;;0.40;0.40;;;14.20;83.80;;;;;;5054766;28;20217;-63
2022/12/08 08:44:02;;;;;;;0.40;0.40;;;14.30;84.20;;;;;;5055230;28;20233;-64
2022/12/08 08:46:52;;;;;;;0.40;0.40;;;14.40;84.10;;;;;;5055168;28;20206;-63
2022/12/08 08:49:40;;;;;;;1.63;1.53;;;14.50;83.30;;;;;;5053993;28;20608;-63
2022/12/08 08:52:28;;;;;;;0.40;0.40;;;14.60;83.80;;;;;;5073347;28;20205;-63
2022/12/08 08:55:17;;;;;;;0.50;0.50;;;14.70;83.60;;;;;;5074092;28;20653;-64
2022/12/08 08:58:05;;;;;;;0.40;0.40;;;14.70;83.40;;;;;;5091030;28;20337;-64
2022/12/08 09:00:53;;;;;;;0.40;0.40;;;14.80;83.30;;;;;;5095061;28;20651;-64
2022/12/08 09:03:43;;;;;;;0.40;0.40;;;14.80;83.10;;;;;;5094494;28;20196;-63
2022/12/08 09:06:31;;;;;;;0.40;0.40;;;14.90;83.10;;;;;;5092225;28;20216;-62
2022/12/08 09:09:19;;;;;;;0.50;0.50;;;14.90;83.00;;;;;;5093626;28;20196;-64
2022/12/08 09:12:08;;;;;;;0.40;0.40;;;14.90;82.90;;;;;;5094608;28;20667;-69
2022/12/08 09:14:56;;;;;;;0.98;0.98;;;15.00;83.00;;;;;;5094192;28;20633;-64
2022/12/08 09:17:44;;;;;;;0.40;0.40;;;15.00;82.90;;;;;;5094842;28;20278;-64
2022/12/08 09:20:34;;;;;;;0.40;0.40;;;15.00;82.70;;;;;;5093941;28;20222;-64
2022/12/08 09:23:22;;;;;;;0.40;0.40;;;15.00;82.50;;;;;;5094486;28;20326;-63
2022/12/08 09:26:10;;;;;;;0.40;0.40;;;15.00;82.50;;;;;;5094091;28;20253;-62
2022/12/08 09:28:58;;;;;;;0.40;0.40;;;15.00;82.30;;;;;;5094447;28;20204;-61
2022/12/08 09:31:46;;;;;;;0.40;0.40;;;15.00;82.40;;;;;;5093924;28;20656;-63
2022/12/08 09:34:34;;;;;;;0.40;0.40;;;15.00;82.40;;;;;;5094512;28;20196;-63
2022/12/08 09:37:24;;;;;;;0.40;0.40;;;15.00;82.50;;;;;;5093923;28;20192;-64
2022/12/08 09:40:18;;;;;;;0.40;0.40;;;14.00;81.60;;;;;;5093227;28;20212;-63
2022/12/08 09:43:14;;;;;;;0.40;0.40;;;14.90;82.50;;;;;;5093980;28;20279;-62
2022/12/08 09:46:06;;;;;;;0.40;0.40;;;14.90;82.50;;;;;;5093368;28;20224;-63
2022/12/08 09:48:58;;;;;;;0.40;0.40;;;14.90;82.60;;;;;;5094505;28;20195;-63
2022/12/08 09:51:46;;;;;;;0.40;0.40;;;14.80;82.60;;;;;;5093511;28;20228;-63
2022/12/08 09:54:36;;;;;;;0.40;0.40;;;14.80;82.60;;;;;;5093547;28;20302;-62
2022/12/08 09:57:24;;;;;;;0.40;0.40;;;14.80;82.60;;;;;;5082790;28;20258;-63
2022/12/08 10:00:14;;;;;;;0.40;0.40;;;14.70;82.80;;;;;;5071775;28;20591;-62
2022/12/08 10:03:02;;;;;;;0.40;0.40;;;14.70;82.80;;;;;;5072725;28;20197;-64
2022/12/08 10:05:55;;;;;;;0.40;0.40;;;14.60;82.80;;;;;;5073854;28;20698;-63
2022/12/08 10:08:51;;;;;;;0.40;0.40;;;14.60;83.00;;;;;;5072666;28;20204;-64
2022/12/08 10:11:58;;;;;;;0.40;0.40;;;14.60;83.10;;;;;;5072899;28;20217;-64
2022/12/08 10:14:55;;;;;;;0.40;0.40;;;14.50;83.10;;;;;;5072606;28;20200;-63
2022/12/08 10:17:47;;;;;;;0.40;0.40;;;14.50;83.30;;;;;;5073301;28;20626;-63
2022/12/08 10:20:37;;;;;;;0.40;0.40;;;14.50;83.40;;;;;;5072310;28;20709;-62
2022/12/08 10:23:32;;;;;;;0.40;0.40;;;14.50;83.40;;;;;;5073376;28;20232;-63
2022/12/08 10:26:22;;;;;;;0.40;0.40;;;14.50;83.50;;;;;;5072922;28;20723;-64
2022/12/08 10:29:13;;;;;;;0.40;0.40;;;14.50;83.80;;;;;;5072301;28;20204;-63
2022/12/08 10:32:17;;;;;;;0.40;0.40;;;14.60;83.90;;;;;;5072997;28;20737;-62
2022/12/08 10:35:08;;;;;;;0.40;0.40;;;14.60;83.70;;;;;;5072336;28;20633;-62
2022/12/08 10:37:57;;;;;;;0.40;0.40;;;14.70;83.80;;;;;;5071861;28;20283;-62
2022/12/08 10:40:47;;;;;;;0.40;0.40;;;14.70;83.70;;;;;;5072009;28;20302;-63
2022/12/08 10:43:38;;;;;;;0.47;0.47;;;14.70;83.50;;;;;;5073608;28;20274;-64
2022/12/08 10:46:28;;;;;;;0.40;0.40;;;14.70;83.30;;;;;;5076351;28;20306;-63
2022/12/08 10:49:26;;;;;;;0.40;0.40;;;14.70;83.20;;;;;;5078656;28;20196;-64
2022/12/08 10:52:22;;;;;;;0.40;0.40;;;14.80;83.20;;;;;;5097316;28;20255;-63
2022/12/08 10:55:15;;;;;;;0.40;0.40;;;14.80;83.20;;;;;;5096694;28;20227;-64
2022/12/08 10:58:03;;;;;;;0.40;0.40;;;14.80;83.20;;;;;;5079903;28;20275;-66
2022/12/08 11:00:53;;;;;;;0.40;0.40;;;14.80;83.10;;;;;;5075506;28;20307;-67
2022/12/08 11:03:47;;;;;;;0.40;0.40;;;14.80;83.10;;;;;;5076188;28;20258;-66
2022/12/08 11:06:38;;;;;;;1.05;1.05;;;14.80;83.10;;;;;;5077594;28;20217;-66
2022/12/08 11:09:38;;;;;;;0.40;0.40;;;14.80;83.10;;;;;;5076886;28;20203;-64
2022/12/08 11:12:28;;;;;;;0.40;0.40;;;14.80;83.10;;;;;;5076141;28;20209;-62
2022/12/08 11:15:18;;;;;;;0.40;0.40;;;14.80;83.10;;;;;;5075149;28;20228;-64
2022/12/08 11:18:10;;;;;;;0.40;0.40;;;14.70;83.20;;;;;;5075520;28;20196;-64
2022/12/08 11:21:05;;;;;;;0.40;0.40;;;14.70;83.20;;;;;;5075040;28;20299;-63
2022/12/08 11:23:53;;;;;;;0.50;0.50;;;14.70;83.30;;;;;;5075066;28;20207;-62
2022/12/08 11:26:49;;;;;;;0.40;0.40;;;14.60;83.20;;;;;;5076507;28;20843;-64
2022/12/08 11:29:37;;;;;;;0.40;0.40;;;14.70;83.40;;;;;;5075343;28;20214;-63
2022/12/08 11:32:25;;;;;;;0.40;0.40;;;14.60;83.40;;;;;;5075838;28;20236;-63
2022/12/08 11:35:20;;;;;;;0.40;0.40;;;14.50;83.50;;;;;;5090413;28;20605;-63
2022/12/08 11:38:14;;;;;;;0.80;0.80;;;14.50;83.50;;;;;;5096483;28;20242;-65
2022/12/08 11:41:11;;;;;;;0.43;0.43;;;14.50;83.70;;;;;;5095817;28;20235;-63
2022/12/08 11:44:08;;;;;;;0.70;0.70;;;14.50;83.70;;;;;;5096750;28;20211;-63
2022/12/08 11:46:58;;;;;;;0.40;0.40;;;14.50;83.80;;;;;;5095902;28;20216;-62
2022/12/08 11:49:48;;;;;;;0.40;0.40;;;14.50;83.70;;;;;;5095615;28;20280;-66
2022/12/08 11:52:44;;;;;;;0.40;0.40;;;14.50;83.90;;;;;;5096606;28;20260;-63
2022/12/08 11:55:38;;;;;;;0.40;0.40;;;14.50;83.80;;;;;;5095012;28;20206;-63
2022/12/08 11:58:38;;;;;;;0.40;0.40;;;14.50;83.90;;;;;;5055132;28;20247;-63
2022/12/08 12:01:27;;;;;;;0.40;0.40;;;14.40;83.80;;;;;;5054719;28;20243;-64
2022/12/08 12:04:22;;;;;;;0.40;0.40;;;14.50;83.90;;;;;;5055711;28;20276;-63
2022/12/08 12:07:33;;;;;;;0.40;0.40;;;14.50;83.90;;;;;;5056114;28;20251;-62
2022/12/08 12:11:01;;;;;;;0.40;0.40;;;14.50;83.80;;;;;;5054517;28;20307;-62
2022/12/08 12:14:02;;;;;;;0.40;0.40;;;14.50;83.90;;;;;;4975247;28;20290;-66
2022/12/08 12:17:03;;;;;;;0.40;0.40;;;14.50;83.90;;;;;;5055282;28;20202;-63
2022/12/08 12:19:53;;;;;;;0.40;0.40;;;14.40;83.50;;;;;;5054929;28;20279;-63
2022/12/08 12:22:43;;;;;;;0.40;0.40;;;14.40;83.90;;;;;;5055049;28;20201;-62
2022/12/08 12:25:34;;;;;;;0.40;0.40;;;14.40;83.80;;;;;;5055378;28;20277;-63
2022/12/08 12:28:25;;;;;;;0.40;0.40;;;14.40;84.00;;;;;;5054560;28;20229;-65
2022/12/08 12:31:17;;;;;;;0.40;0.40;;;14.40;84.00;;;;;;5055208;28;20312;-62
2022/12/08 12:34:08;;;;;;;0.40;0.40;;;14.40;84.00;;;;;;5056455;28;20620;-63
2022/12/08 12:37:03;;;;;;;0.95;0.95;;;14.40;84.10;;;;;;5059176;28;20275;-63
2022/12/08 12:39:58;;;;;;;0.40;0.40;;;14.40;84.20;;;;;;5075141;28;20236;-64
2022/12/08 12:42:49;;;;;;;0.40;0.40;;;14.30;84.20;;;;;;5074891;28;20208;-63
2022/12/08 12:45:42;;;;;;;0.40;0.40;;;14.30;84.20;;;;;;5074361;28;20201;-63
2022/12/08 12:48:30;;;;;;;0.47;0.47;;;14.30;84.20;;;;;;5074389;28;20216;-62
2022/12/08 12:51:36;;;;;;;0.40;0.40;;;14.30;84.30;;;;;;5074144;28;20228;-63
2022/12/08 12:54:25;;;;;;;0.40;0.40;;;14.40;84.40;;;;;;5058960;28;20673;-64
2022/12/08 12:57:23;;;;;;;0.40;0.40;;;14.40;84.40;;;;;;5083051;28;20274;-63
2022/12/08 13:00:19;;;;;;;0.40;0.40;;;14.40;84.40;;;;;;5094406;28;20713;-65
2022/12/08 13:03:15;;;;;;;0.40;0.40;;;14.40;84.30;;;;;;5094623;28;20279;-62
2022/12/08 13:06:04;;;;;;;0.40;0.40;;;14.40;84.30;;;;;;5094386;28;20196;-64
2022/12/08 13:08:59;;;;;;;0.40;0.40;;;14.40;84.30;;;;;;5094542;28;20204;-63
2022/12/08 13:11:50;;;;;;;0.40;0.40;;;14.40;84.20;;;;;;5094412;28;20269;-63
2022/12/08 13:14:46;;;;;;;0.40;0.40;;;14.50;84.30;;;;;;5095539;28;20255;-63
2022/12/08 13:17:37;;;;;;;0.40;0.40;;;14.50;84.30;;;;;;5095200;28;20198;-64
2022/12/08 13:20:27;;;;;;;0.40;0.40;;;14.50;84.20;;;;;;5094256;28;20216;-63
2022/12/08 13:23:42;;;;;;;0.40;0.40;;;14.50;84.20;;;;;;5094274;28;20281;-62
2022/12/08 13:26:31;;;;;;;0.40;0.40;;;14.50;84.20;;;;;;5093243;28;20208;-64
2022/12/08 13:29:23;;;;;;;0.40;0.40;;;14.50;84.20;;;;;;5094562;28;20293;-63
2022/12/08 13:32:46;;;;;;;0.40;0.40;;;14.50;84.20;;;;;;5093486;28;20794;-63
2022/12/08 13:36:14;;;;;;;0.40;0.40;;;14.50;84.20;;;;;;5095006;28;20206;-64
2022/12/08 13:39:04;;;;;;;0.40;0.40;;;14.50;84.20;;;;;;5094136;28;20208;-64
2022/12/08 13:41:59;;;;;;;0.40;0.40;;;14.50;84.30;;;;;;5094128;28;20551;-62
2022/12/08 13:44:50;;;;;;;0.40;0.40;;;14.50;84.40;;;;;;5094585;28;20686;-63
2022/12/08 13:48:02;;;;;;;0.50;0.50;;;14.40;84.30;;;;;;5093785;28;20215;-67
2022/12/08 13:51:16;;;;;;;0.40;0.40;;;14.40;84.40;;;;;;5093777;28;20737;-65
2022/12/08 13:54:28;;;;;;;0.60;0.60;;;14.40;84.50;;;;;;5093274;28;20200;-63
2022/12/08 13:57:36;;;;;;;0.40;0.40;;;14.40;84.50;;;;;;5080467;28;20201;-63
2022/12/08 14:00:27;;;;;;;3.03;2.83;;;14.40;84.70;;;;;;5074070;28;20600;-66
2022/12/08 14:03:15;;;;;;;0.40;0.40;;;14.30;84.60;;;;;;5073343;28;20733;-65
2022/12/08 14:06:03;;;;;;;0.40;0.40;;;14.30;84.70;;;;;;5073591;28;20851;-62
2022/12/08 14:09:04;;;;;;;0.60;0.60;;;14.40;84.90;;;;;;5072739;28;20223;-64
2022/12/08 14:12:02;;;;;;;0.40;0.40;;;14.40;84.80;;;;;;5073961;28;20221;-64
2022/12/08 14:14:52;;;;;;;0.40;0.40;;;14.50;84.70;;;;;;5072564;28;20716;-64
2022/12/08 14:17:52;;;;;;;0.40;0.40;;;14.60;84.70;;;;;;5072160;28;20204;-64
2022/12/08 14:20:40;;;;;;;0.40;0.40;;;14.60;84.60;;;;;;5072260;28;20301;-62
2022/12/08 14:23:48;;;;;;;0.40;0.40;;;14.70;84.60;;;;;;5073986;28;20204;-64
2022/12/08 14:26:38;;;;;;;0.40;0.40;;;14.70;84.40;;;;;;5073326;28;20219;-64
2022/12/08 14:29:44;;;;;;;0.40;0.40;;;14.80;84.40;;;;;;5073161;28;20790;-67
2022/12/08 14:32:37;;;;;;;0.40;0.40;;;14.80;84.10;;;;;;5072360;28;20576;-65
2022/12/08 14:35:27;;;;;;;0.40;0.40;;;14.70;83.80;;;;;;5072618;28;20674;-61
2022/12/08 14:38:17;;;;;;;0.40;0.40;;;14.80;83.80;;;;;;5072531;28;20197;-63
2022/12/08 14:41:08;;;;;;;0.40;0.40;;;14.80;83.90;;;;;;5072286;28;20220;-62
2022/12/08 14:44:01;;;;;;;0.40;0.40;;;14.80;83.80;;;;;;5072954;28;20301;-63
2022/12/08 14:47:03;;;;;;;0.40;0.40;;;14.90;83.80;;;;;;5072308;28;20204;-63
2022/12/08 14:49:52;;;;;;;0.40;0.40;;;14.80;83.40;;;;;;5072139;28;20192;-67
2022/12/08 14:52:43;;;;;;;0.40;0.40;;;14.80;83.70;;;;;;5072161;28;20246;-66
2022/12/08 14:55:35;;;;;;;0.40;0.40;;;14.70;83.60;;;;;;5072142;28;20208;-63
2022/12/08 14:58:28;;;;;;;0.40;0.40;;;14.70;83.70;;;;;;5091745;28;20279;-66
2022/12/08 15:01:22;;;;;;;0.40;0.40;;;14.70;83.70;;;;;;5093026;28;20329;-63